Time;durP1;ratioP1;P1;durP2;ratioP2;P2;SDS_P1;SDS_P2;PMS_P1;PMS_P2;Temp;Humidity;BMP_temperature;BMP_pressure;BME280_temperature;BME280_humidity;BME280_pressure;Samples;Min_cycle;Max_cycle;Signal;HPM_P1;HPM_P2
2023/04/26 00:01:35;;;;;;;;;;;4.10;99.90;;;;;;5052376;28;19939;-50
2023/04/26 00:04:02;;;;;;;;;;;4.00;99.90;;;;;;5050939;28;19946;-46
2023/04/26 00:06:29;;;;;;;;;;;4.00;99.90;;;;;;5067350;28;20026;-42
2023/04/26 00:08:56;;;;;;;;;;;4.00;99.90;;;;;;5062616;28;19979;-43
2023/04/26 00:11:22;;;;;;;;;;;3.90;99.90;;;;;;5055369;28;19962;-49
2023/04/26 00:13:49;;;;;;;;;;;3.90;99.90;;;;;;5051999;28;20018;-46
2023/04/26 00:16:18;;;;;;;;;;;3.90;99.90;;;;;;5053094;28;19976;-51
2023/04/26 00:18:46;;;;;;;;;;;3.90;99.90;;;;;;5050713;28;19934;-52
2023/04/26 00:21:12;;;;;;;;;;;3.90;99.90;;;;;;5051609;28;19947;-49
2023/04/26 00:23:39;;;;;;;;;;;3.80;99.90;;;;;;5054570;28;19925;-51
2023/04/26 00:26:06;;;;;;;;;;;3.90;99.90;;;;;;5052479;28;20388;-48
2023/04/26 00:28:33;;;;;;;;;;;3.80;99.90;;;;;;5061608;28;19944;-46
2023/04/26 00:30:59;;;;;;;;;;;3.90;99.90;;;;;;5051014;28;20015;-51
2023/04/26 00:33:27;;;;;;;;;;;3.90;99.90;;;;;;5051397;28;20011;-52
2023/04/26 00:35:54;;;;;;;;;;;3.90;99.90;;;;;;5050472;28;19933;-49
2023/04/26 00:38:21;;;;;;;;;;;3.90;99.90;;;;;;5051535;28;19924;-51
2023/04/26 00:40:47;;;;;;;;;;;3.90;99.90;;;;;;5052012;28;19938;-51
2023/04/26 00:43:14;;;;;;;;;;;3.90;99.90;;;;;;5052039;28;19989;-49
2023/04/26 00:45:41;;;;;;;;;;;3.90;99.90;;;;;;5052240;28;19985;-48
2023/04/26 00:48:08;;;;;;;;;;;4.00;99.90;;;;;;5051814;28;19937;-46
2023/04/26 00:50:36;;;;;;;;;;;4.00;99.90;;;;;;5055303;28;19943;-50
2023/04/26 00:53:02;;;;;;;;;;;4.00;99.90;;;;;;5053632;28;19949;-49
2023/04/26 00:55:29;;;;;;;;;;;4.00;99.90;;;;;;5054238;28;19933;-47
2023/04/26 00:57:56;;;;;;;;;;;4.00;99.90;;;;;;5062020;28;19958;-47
2023/04/26 01:00:23;;;;;;;;;;;4.00;99.90;;;;;;5055160;28;20043;-53
2023/04/26 01:02:49;;;;;;;;;;;4.10;99.90;;;;;;5055495;28;19970;-54
2023/04/26 01:05:16;;;;;;;;;;;4.00;99.90;;;;;;5054916;28;19942;-54
2023/04/26 01:07:44;;;;;;;;;;;4.10;99.90;;;;;;5059672;28;20297;-49
2023/04/26 01:10:11;;;;;;;;;;;4.10;99.90;;;;;;5070433;28;19948;-49
2023/04/26 01:12:38;;;;;;;;;;;4.00;99.90;;;;;;5054113;28;20051;-47
2023/04/26 01:15:05;;;;;;;;;;;4.00;99.90;;;;;;5054060;28;19958;-46
2023/04/26 01:17:32;;;;;;;;;;;4.00;99.90;;;;;;5055112;28;19941;-44
2023/04/26 01:19:58;;;;;;;;;;;4.00;99.90;;;;;;5054464;28;19921;-46
2023/04/26 01:22:25;;;;;;;;;;;4.00;99.90;;;;;;5053927;28;19935;-51
2023/04/26 01:24:54;;;;;;;;;;;4.00;99.90;;;;;;5054742;28;19980;-44
2023/04/26 01:27:21;;;;;;;;;;;3.90;99.90;;;;;;5054904;28;19991;-49
2023/04/26 01:29:47;;;;;;;;;;;3.90;99.90;;;;;;5055038;28;19935;-48
2023/04/26 01:32:14;;;;;;;;;;;3.80;99.90;;;;;;5065100;28;20496;-49
2023/04/26 01:34:40;;;;;;;;;;;3.80;99.90;;;;;;5068573;28;19959;-50
2023/04/26 01:37:07;;;;;;;;;;;3.90;99.90;;;;;;5054755;28;19950;-47
2023/04/26 01:39:35;;;;;;;;;;;3.80;99.90;;;;;;5060635;28;19933;-49
2023/04/26 01:42:03;;;;;;;;;;;3.80;99.90;;;;;;5060022;28;19976;-52
2023/04/26 01:44:30;;;;;;;;;;;3.70;99.90;;;;;;5061449;28;19936;-53
2023/04/26 01:46:56;;;;;;;;;;;3.70;99.90;;;;;;5054527;28;19959;-48
2023/04/26 01:49:23;;;;;;;;;;;3.60;99.90;;;;;;5053252;28;19936;-50
2023/04/26 01:51:50;;;;;;;;;;;3.60;99.90;;;;;;5064313;28;20043;-48
2023/04/26 01:54:17;;;;;;;;;;;3.70;99.90;;;;;;5064371;28;19975;-46
2023/04/26 01:56:43;;;;;;;;;;;3.60;99.90;;;;;;5052484;28;19983;-49
2023/04/26 01:59:11;;;;;;;;;;;3.70;99.90;;;;;;5060976;28;20028;-46
2023/04/26 02:01:38;;;;;;;;;;;3.60;99.90;;;;;;5061669;28;20349;-47
2023/04/26 02:04:05;;;;;;;;;;;3.70;99.90;;;;;;5054027;28;19987;-51
2023/04/26 02:06:32;;;;;;;;;;;3.70;99.90;;;;;;5071784;28;19936;-42
2023/04/26 02:08:58;;;;;;;;;;;3.70;99.90;;;;;;5073592;28;20387;-53
2023/04/26 02:11:25;;;;;;;;;;;3.70;99.90;;;;;;5066646;28;19942;-48
2023/04/26 02:13:52;;;;;;;;;;;3.70;99.90;;;;;;5060195;28;19979;-51
2023/04/26 02:16:20;;;;;;;;;;;3.80;99.90;;;;;;5053808;28;19942;-53
2023/04/26 02:18:48;;;;;;;;;;;3.80;99.90;;;;;;5062571;28;19934;-51
2023/04/26 02:21:16;;;;;;;;;;;3.80;99.90;;;;;;5061433;28;19939;-45
2023/04/26 02:23:42;;;;;;;;;;;3.80;99.90;;;;;;5057412;28;20404;-46
2023/04/26 02:26:10;;;;;;;;;;;3.80;99.90;;;;;;5065945;28;20030;-49
2023/04/26 02:28:37;;;;;;;;;;;3.80;99.90;;;;;;5049996;28;19952;-47
2023/04/26 02:31:03;;;;;;;;;;;3.80;99.90;;;;;;5051900;28;19946;-50
2023/04/26 02:33:31;;;;;;;;;;;3.80;99.90;;;;;;5051073;28;20432;-49
2023/04/26 02:35:58;;;;;;;;;;;3.80;99.90;;;;;;5047187;28;19932;-51
2023/04/26 02:38:26;;;;;;;;;;;3.80;99.90;;;;;;5034256;28;19998;-51
2023/04/26 02:40:57;;;;;;;;;;;3.80;99.90;;;;;;5038393;28;20617;-52
2023/04/26 02:43:24;;;;;;;;;;;3.80;99.90;;;;;;5052309;28;19941;-50
2023/04/26 02:45:50;;;;;;;;;;;3.80;99.90;;;;;;5053368;28;19968;-53
2023/04/26 02:48:17;;;;;;;;;;;3.80;99.90;;;;;;5073778;28;19987;-50
2023/04/26 02:50:45;;;;;;;;;;;3.80;99.90;;;;;;5053705;28;19992;-54
2023/04/26 02:53:12;;;;;;;;;;;3.70;99.90;;;;;;5051814;28;19992;-48
2023/04/26 02:55:39;;;;;;;;;;;3.70;99.90;;;;;;5054222;28;20137;-49
2023/04/26 02:58:06;;;;;;;;;;;3.70;99.90;;;;;;5048994;28;19942;-49
2023/04/26 03:00:33;;;;;;;;;;;3.70;99.90;;;;;;5061837;28;20377;-45
2023/04/26 03:03:00;;;;;;;;;;;3.70;99.90;;;;;;5053501;28;19938;-49
2023/04/26 03:05:27;;;;;;;;;;;3.60;99.90;;;;;;5053216;28;19935;-49
2023/04/26 03:07:55;;;;;;;;;;;3.60;99.90;;;;;;5046902;28;19933;-49
2023/04/26 03:10:21;;;;;;;;;;;3.60;99.90;;;;;;5068851;28;19936;-48
2023/04/26 03:12:48;;;;;;;;;;;3.60;99.90;;;;;;5038477;28;20034;-50
2023/04/26 03:15:15;;;;;;;;;;;3.50;99.90;;;;;;5059216;28;19937;-49
2023/04/26 03:17:42;;;;;;;;;;;3.50;99.90;;;;;;5055512;28;19973;-53
2023/04/26 03:20:09;;;;;;;;;;;3.50;99.90;;;;;;5070690;28;19967;-52
2023/04/26 03:22:36;;;;;;;;;;;3.50;99.90;;;;;;5052695;28;19932;-54
2023/04/26 03:25:04;;;;;;;;;;;3.50;99.90;;;;;;5059325;28;20046;-50
2023/04/26 03:27:31;;;;;;;;;;;3.40;99.90;;;;;;5048904;28;20332;-51
2023/04/26 03:29:58;;;;;;;;;;;3.40;99.90;;;;;;5058271;28;20023;-46
2023/04/26 03:32:24;;;;;;;;;;;3.40;99.90;;;;;;5055097;28;20053;-43
2023/04/26 03:34:51;;;;;;;;;;;3.40;99.90;;;;;;5055613;28;20310;-48
2023/04/26 03:37:17;;;;;;;;;;;3.30;99.90;;;;;;5051941;28;19949;-46
2023/04/26 03:39:44;;;;;;;;;;;3.30;99.90;;;;;;5052254;28;19963;-50
2023/04/26 03:42:12;;;;;;;;;;;3.30;99.90;;;;;;5049877;28;20009;-47
2023/04/26 03:44:39;;;;;;;;;;;3.20;99.90;;;;;;5035361;28;20017;-49
2023/04/26 03:47:06;;;;;;;;;;;3.20;99.90;;;;;;5045173;28;19983;-54
2023/04/26 03:49:32;;;;;;;;;;;3.20;99.90;;;;;;5050648;28;19963;-47
2023/04/26 03:51:59;;;;;;;;;;;3.20;99.90;;;;;;5051790;28;19987;-51
2023/04/26 03:54:26;;;;;;;;;;;3.10;99.90;;;;;;5048813;28;19958;-45
2023/04/26 03:56:52;;;;;;;;;;;3.10;99.90;;;;;;5049598;28;19979;-50
2023/04/26 03:59:20;;;;;;;;;;;3.10;99.90;;;;;;5050797;28;19939;-46
2023/04/26 04:01:47;;;;;;;;;;;3.10;99.90;;;;;;5051923;28;19936;-51
2023/04/26 04:04:14;;;;;;;;;;;3.10;99.90;;;;;;5056436;28;19991;-49
2023/04/26 04:06:40;;;;;;;;;;;3.00;99.90;;;;;;5052227;28;19943;-48
2023/04/26 04:09:07;;;;;;;;;;;3.00;99.90;;;;;;5050209;28;19941;-46
2023/04/26 04:11:34;;;;;;;;;;;3.00;99.90;;;;;;5051165;28;19939;-51
2023/04/26 04:14:01;;;;;;;;;;;3.00;99.90;;;;;;5053406;28;19959;-48
2023/04/26 04:16:29;;;;;;;;;;;2.90;99.90;;;;;;5050917;28;19937;-48
2023/04/26 04:18:56;;;;;;;;;;;3.00;99.90;;;;;;5054425;28;19942;-45
2023/04/26 04:21:23;;;;;;;;;;;2.90;99.90;;;;;;5051109;28;20022;-49
2023/04/26 04:23:50;;;;;;;;;;;2.90;99.90;;;;;;5050617;28;19921;-49
2023/04/26 04:26:17;;;;;;;;;;;2.90;99.90;;;;;;5050818;28;19945;-43
2023/04/26 04:28:45;;;;;;;;;;;3.00;99.90;;;;;;5051850;28;19953;-49
2023/04/26 04:31:12;;;;;;;;;;;2.90;99.90;;;;;;5051137;28;19937;-49
2023/04/26 04:33:40;;;;;;;;;;;2.90;99.90;;;;;;5051692;28;20014;-47
2023/04/26 04:36:07;;;;;;;;;;;2.80;99.90;;;;;;5051803;28;19972;-47
2023/04/26 04:38:34;;;;;;;;;;;2.80;99.90;;;;;;5051181;28;19958;-46
2023/04/26 04:41:01;;;;;;;;;;;2.90;99.90;;;;;;5049956;28;19989;-46
2023/04/26 04:43:28;;;;;;;;;;;2.80;99.90;;;;;;5052047;28;20379;-48
2023/04/26 04:45:54;;;;;;;;;;;2.80;99.90;;;;;;5034016;28;20060;-49
2023/04/26 04:48:21;;;;;;;;;;;2.80;99.90;;;;;;5060564;28;19983;-47
2023/04/26 04:50:49;;;;;;;;;;;2.80;99.90;;;;;;5050747;28;19985;-47
2023/04/26 04:53:16;;;;;;;;;;;2.80;99.90;;;;;;5042053;28;20041;-49
2023/04/26 04:55:42;;;;;;;;;;;2.80;99.90;;;;;;5045460;28;19924;-47
2023/04/26 04:58:09;;;;;;;;;;;2.80;99.90;;;;;;5051925;28;20402;-48
2023/04/26 05:00:37;;;;;;;;;;;2.90;99.90;;;;;;5048558;28;19937;-53
2023/04/26 05:03:04;;;;;;;;;;;2.90;99.90;;;;;;5046180;28;19937;-47
2023/04/26 05:05:30;;;;;;;;;;;2.90;99.90;;;;;;5051900;28;19991;-52
2023/04/26 05:07:58;;;;;;;;;;;2.90;99.90;;;;;;5050818;28;20018;-51
2023/04/26 05:10:25;;;;;;;;;;;3.10;99.90;;;;;;5050125;28;19993;-51
2023/04/26 05:12:52;;;;;;;;;;;3.10;99.90;;;;;;5051159;28;19936;-54
2023/04/26 05:15:18;;;;;;;;;;;3.20;99.90;;;;;;5034118;28;20025;-52
2023/04/26 05:17:45;;;;;;;;;;;3.20;99.90;;;;;;5048200;28;19939;-48
2023/04/26 05:20:13;;;;;;;;;;;3.30;99.90;;;;;;5050134;28;20005;-48
2023/04/26 05:22:40;;;;;;;;;;;3.40;99.90;;;;;;5050131;28;20027;-51
2023/04/26 05:25:09;;;;;;;;;;;3.50;99.90;;;;;;5049798;28;19985;-49
2023/04/26 05:27:36;;;;;;;;;;;3.60;99.90;;;;;;5050848;28;19944;-53
2023/04/26 05:30:03;;;;;;;;;;;3.60;99.90;;;;;;5050446;28;19937;-49
2023/04/26 05:32:30;;;;;;;;;;;3.70;99.90;;;;;;5049174;28;20041;-49
2023/04/26 05:34:56;;;;;;;;;;;3.70;99.90;;;;;;5039957;28;19949;-51
2023/04/26 05:37:23;;;;;;;;;;;3.90;99.90;;;;;;5054838;28;20012;-52
2023/04/26 05:39:50;;;;;;;;;;;3.90;99.90;;;;;;5054142;28;19927;-50
2023/04/26 05:42:18;;;;;;;;;;;4.00;99.90;;;;;;5054525;28;20573;-49
2023/04/26 05:44:45;;;;;;;;;;;4.10;99.90;;;;;;5054472;28;19941;-54
2023/04/26 05:47:11;;;;;;;;;;;4.20;99.90;;;;;;5046045;28;20387;-52
2023/04/26 05:49:38;;;;;;;;;;;4.30;99.90;;;;;;5038268;28;20334;-52
2023/04/26 05:52:05;;;;;;;;;;;4.40;99.90;;;;;;5054873;28;20397;-49
2023/04/26 05:54:32;;;;;;;;;;;4.60;99.90;;;;;;5054511;28;19957;-50
2023/04/26 05:56:58;;;;;;;;;;;4.80;99.90;;;;;;5054328;28;19941;-48
2023/04/26 05:59:26;;;;;;;;;;;5.00;99.90;;;;;;5054240;28;19957;-50
2023/04/26 06:01:53;;;;;;;;;;;5.10;99.90;;;;;;5053598;28;20018;-49
2023/04/26 06:04:20;;;;;;;;;;;5.30;99.90;;;;;;5054687;28;19949;-48
2023/04/26 06:06:46;;;;;;;;;;;5.40;99.90;;;;;;5054604;28;20008;-51
2023/04/26 06:09:13;;;;;;;;;;;5.60;99.90;;;;;;5054179;28;19965;-46
2023/04/26 06:11:39;;;;;;;;;;;5.80;99.90;;;;;;5053097;28;19944;-51
2023/04/26 06:14:06;;;;;;;;;;;5.90;99.90;;;;;;5052233;28;20143;-50
2023/04/26 06:16:34;;;;;;;;;;;6.00;99.90;;;;;;5052968;28;20380;-40
2023/04/26 06:19:01;;;;;;;;;;;6.20;99.90;;;;;;5037121;28;19961;-49
2023/04/26 06:21:27;;;;;;;;;;;6.20;99.90;;;;;;5052408;28;20003;-50
2023/04/26 06:23:54;;;;;;;;;;;6.20;99.90;;;;;;5053518;28;19957;-49
2023/04/26 06:26:21;;;;;;;;;;;6.30;99.90;;;;;;5051749;28;19977;-48
2023/04/26 06:28:47;;;;;;;;;;;6.40;99.90;;;;;;5045109;28;20317;-49
2023/04/26 06:31:14;;;;;;;;;;;6.40;99.90;;;;;;5042763;28;20452;-50
2023/04/26 06:33:42;;;;;;;;;;;6.50;99.90;;;;;;5053352;28;19950;-51
2023/04/26 06:36:11;;;;;;;;;;;6.60;99.90;;;;;;5053860;28;19988;-45
2023/04/26 06:38:37;;;;;;;;;;;6.70;99.90;;;;;;5048280;28;19931;-51
2023/04/26 06:41:04;;;;;;;;;;;6.80;99.90;;;;;;5046828;28;20438;-48
2023/04/26 06:43:31;;;;;;;;;;;6.90;99.90;;;;;;5052033;28;19958;-47
2023/04/26 06:45:57;;;;;;;;;;;7.00;99.90;;;;;;5052250;28;19932;-48
2023/04/26 06:48:24;;;;;;;;;;;7.20;99.90;;;;;;5053591;28;20274;-46
2023/04/26 06:50:52;;;;;;;;;;;7.30;99.90;;;;;;5034606;28;20018;-45
2023/04/26 06:53:19;;;;;;;;;;;7.40;99.90;;;;;;5049766;28;19941;-47
2023/04/26 06:55:45;;;;;;;;;;;7.50;99.90;;;;;;5052943;28;20037;-48
2023/04/26 06:58:12;;;;;;;;;;;7.50;99.90;;;;;;5042756;28;19937;-47
2023/04/26 07:00:39;;;;;;;;;;;7.60;99.90;;;;;;5041238;28;19968;-49
2023/04/26 07:03:06;;;;;;;;;;;7.60;99.90;;;;;;5044391;28;19935;-46
2023/04/26 07:05:32;;;;;;;;;;;7.70;99.90;;;;;;5049286;28;19938;-48
2023/04/26 07:08:00;;;;;;;;;;;7.80;99.90;;;;;;5047063;28;19969;-47
2023/04/26 07:10:27;;;;;;;;;;;7.90;99.90;;;;;;5040130;28;20094;-50
2023/04/26 07:12:54;;;;;;;;;;;8.00;99.90;;;;;;5045732;28;20014;-48
2023/04/26 07:15:21;;;;;;;;;;;8.20;99.90;;;;;;5052862;28;19961;-46
2023/04/26 07:17:48;;;;;;;;;;;8.40;99.90;;;;;;5048379;28;20406;-47
2023/04/26 07:20:18;;;;;;;;;;;8.50;99.90;;;;;;5058751;28;20003;-46
2023/04/26 07:22:45;;;;;;;;;;;8.60;99.90;;;;;;5051803;28;19943;-47
2023/04/26 07:25:13;;;;;;;;;;;8.70;99.90;;;;;;5051584;28;19990;-49
2023/04/26 07:27:40;;;;;;;;;;;8.90;99.90;;;;;;5043881;28;20360;-49
2023/04/26 07:30:07;;;;;;;;;;;9.00;99.90;;;;;;5050712;28;20401;-46
2023/04/26 07:32:33;;;;;;;;;;;9.10;99.90;;;;;;5040593;28;20292;-50
2023/04/26 07:35:00;;;;;;;;;;;9.20;99.90;;;;;;5056265;28;19971;-46
2023/04/26 07:37:27;;;;;;;;;;;9.20;99.90;;;;;;5051567;28;20376;-49
2023/04/26 07:39:53;;;;;;;;;;;9.20;99.90;;;;;;5053060;28;19942;-45
2023/04/26 07:42:21;;;;;;;;;;;9.20;99.90;;;;;;5052339;28;19994;-45
2023/04/26 07:44:48;;;;;;;;;;;9.30;99.90;;;;;;5051406;28;19986;-47
2023/04/26 07:47:15;;;;;;;;;;;9.40;99.90;;;;;;5043916;28;19957;-46
2023/04/26 07:49:41;;;;;;;;;;;9.50;99.90;;;;;;5051938;28;19933;-48
2023/04/26 07:52:08;;;;;;;;;;;9.70;99.90;;;;;;5036011;28;19941;-46
2023/04/26 07:54:35;;;;;;;;;;;9.80;99.90;;;;;;5051729;28;19920;-46
2023/04/26 07:57:02;;;;;;;;;;;9.90;99.90;;;;;;5044363;28;20033;-48
2023/04/26 07:59:30;;;;;;;;;;;9.90;99.90;;;;;;5047216;28;19928;-47
2023/04/26 08:01:56;;;;;;;;;;;10.00;99.90;;;;;;5056167;28;19986;-44
2023/04/26 08:04:30;;;;;;;;;;;10.20;99.90;;;;;;5041863;28;19939;-47
2023/04/26 08:06:57;;;;;;;;;;;10.20;99.90;;;;;;5051707;28;19985;-50
2023/04/26 08:09:23;;;;;;;;;;;10.40;99.90;;;;;;5051777;28;20343;-44
2023/04/26 08:11:50;;;;;;;;;;;10.40;99.90;;;;;;5045635;28;19993;-46
2023/04/26 08:14:17;;;;;;;;;;;10.50;99.90;;;;;;5049404;28;20006;-47
2023/04/26 08:16:45;;;;;;;;;;;10.60;99.90;;;;;;5049157;28;19933;-45
2023/04/26 08:19:11;;;;;;;;;;;10.60;99.90;;;;;;5049989;28;20010;-47
2023/04/26 08:21:38;;;;;;;;;;;10.60;99.90;;;;;;5047975;28;20449;-45
2023/04/26 08:24:06;;;;;;;;;;;10.70;99.90;;;;;;5050661;28;20443;-43
2023/04/26 08:26:32;;;;;;;;;;;10.80;99.90;;;;;;5051609;28;19972;-48
2023/04/26 08:28:59;;;;;;;;;;;10.90;99.90;;;;;;5051583;28;20475;-46
2023/04/26 08:31:26;;;;;;;;;;;10.90;99.90;;;;;;5050419;28;19949;-43
2023/04/26 08:33:54;;;;;;;;;;;10.90;99.90;;;;;;5051269;28;19937;-44
2023/04/26 08:36:21;;;;;;;;;;;10.80;99.90;;;;;;5051939;28;19982;-47
2023/04/26 08:38:47;;;;;;;;;;;10.70;99.90;;;;;;5050761;28;19937;-45
2023/04/26 08:41:14;;;;;;;;;;;10.70;99.90;;;;;;5051023;28;19968;-48
2023/04/26 08:43:41;;;;;;;;;;;10.60;99.90;;;;;;5049894;28;20453;-45
2023/04/26 08:46:08;;;;;;;;;;;10.40;99.90;;;;;;5044935;28;19990;-48
2023/04/26 08:48:34;;;;;;;;;;;10.30;99.90;;;;;;5037304;28;20377;-46
2023/04/26 08:51:02;;;;;;;;;;;10.40;99.90;;;;;;5049613;28;19980;-45
2023/04/26 08:53:29;;;;;;;;;;;10.40;99.90;;;;;;5047224;28;19938;-46
2023/04/26 08:55:56;;;;;;;;;;;10.40;99.90;;;;;;5048973;28;19956;-48
2023/04/26 08:58:22;;;;;;;;;;;10.50;99.90;;;;;;5051626;28;19991;-44
2023/04/26 09:00:49;;;;;;;;;;;10.50;99.90;;;;;;5051658;28;20283;-46
2023/04/26 09:03:15;;;;;;;;;;;10.60;99.90;;;;;;5048304;28;20396;-44
2023/04/26 09:05:44;;;;;;;;;;;10.70;99.90;;;;;;5042239;28;19970;-45
2023/04/26 09:08:12;;;;;;;;;;;10.90;99.90;;;;;;5050861;28;19940;-48
2023/04/26 09:10:39;;;;;;;;;;;11.00;99.90;;;;;;5050763;28;19998;-47
2023/04/26 09:13:05;;;;;;;;;;;11.10;99.90;;;;;;5052335;28;20283;-47
2023/04/26 09:15:32;;;;;;;;;;;11.20;99.90;;;;;;5046540;28;20028;-44
2023/04/26 09:18:02;;;;;;;;;;;11.30;99.90;;;;;;5046164;28;19979;-46
2023/04/26 09:20:30;;;;;;;;;;;11.40;99.90;;;;;;5060183;28;20002;-44
2023/04/26 09:23:03;;;;;;;;;;;11.60;99.90;;;;;;5066422;28;19941;-43
2023/04/26 09:25:31;;;;;;;;;;;11.70;99.90;;;;;;5034408;28;20454;-43
2023/04/26 09:27:58;;;;;;;;;;;12.00;99.90;;;;;;5058125;28;19934;-42
2023/04/26 09:30:25;;;;;;;;;;;12.20;99.90;;;;;;5054198;28;19942;-46
2023/04/26 09:32:52;;;;;;;;;;;12.40;99.90;;;;;;5053803;28;21355;-45
2023/04/26 09:35:28;;;;;;;;;;;12.60;99.90;;;;;;5045817;28;20405;-45
2023/04/26 09:37:57;;;;;;;;;;;12.70;99.70;;;;;;5054001;28;20004;-44
2023/04/26 09:40:24;;;;;;;;;;;12.90;98.80;;;;;;5053904;28;20444;-42
2023/04/26 09:43:02;;;;;;;;;;;13.00;99.90;;;;;;5055265;28;19935;-46
2023/04/26 09:45:30;;;;;;;;;;;13.10;99.80;;;;;;5053823;28;20287;-45
2023/04/26 09:48:12;;;;;;;;;;;13.40;99.20;;;;;;5053875;28;19944;-43
2023/04/26 09:50:38;;;;;;;;;;;13.50;99.90;;;;;;5053336;28;19937;-43
2023/04/26 09:53:05;;;;;;;;;;;13.50;97.10;;;;;;5054588;28;19980;-45
2023/04/26 09:55:32;;;;;;;;;;;13.40;98.10;;;;;;5041812;28;19961;-46
2023/04/26 09:57:59;;;;;;;;;;;13.50;99.80;;;;;;5035329;28;20006;-41
2023/04/26 10:00:27;;;;;;;;;;;13.50;99.70;;;;;;5035277;28;20314;-45
2023/04/26 10:02:54;;;;;;;;;;;13.50;95.10;;;;;;5036733;28;19957;-45
2023/04/26 10:05:21;;;;;;;;;;;13.40;97.80;;;;;;5049443;28;19986;-42
2023/04/26 10:07:48;;;;;;;;;;;13.30;95.80;;;;;;5049210;28;19985;-44
2023/04/26 10:10:15;;;;;;;;;;;13.10;97.00;;;;;;5049891;28;20024;-46
2023/04/26 10:12:42;;;;;;;;;;;12.90;96.30;;;;;;5046521;28;20380;-44
2023/04/26 10:15:09;;;;;;;;;;;12.80;99.90;;;;;;5055252;28;20454;-44
2023/04/26 10:17:37;;;;;;;;;;;12.70;99.80;;;;;;5053485;28;19934;-48
2023/04/26 10:20:05;;;;;;;;;;;12.50;99.90;;;;;;5054040;28;19954;-49
2023/04/26 10:22:32;;;;;;;;;;;12.30;99.90;;;;;;5053470;28;19946;-46
2023/04/26 10:24:59;;;;;;;;;;;12.10;99.90;;;;;;5054719;28;20032;-47
2023/04/26 10:27:43;;;;;;;;;;;12.00;99.90;;;;;;5050004;28;19944;-49
2023/04/26 10:30:12;;;;;;;;;;;11.90;99.90;;;;;;5052080;28;20439;-44
2023/04/26 10:32:58;;;;;;;;;;;11.70;99.90;;;;;;5051559;28;19987;-43
2023/04/26 10:35:26;;;;;;;;;;;11.60;99.90;;;;;;5056831;28;20046;-44
2023/04/26 10:38:08;;;;;;;;;;;11.50;99.90;;;;;;5054312;28;19939;-45
2023/04/26 10:40:37;;;;;;;;;;;11.40;99.90;;;;;;5056248;28;19935;-41
2023/04/26 10:43:22;;;;;;;;;;;11.40;99.90;;;;;;5065637;28;20452;-42
2023/04/26 10:45:50;;;;;;;;;;;11.30;99.90;;;;;;5049249;28;20391;-46
2023/04/26 10:48:17;;;;;;;;;;;11.40;99.90;;;;;;5052585;28;19967;-47
2023/04/26 10:51:04;;;;;;;;;;;11.30;99.90;;;;;;5053354;28;20016;-43
2023/04/26 10:53:32;;;;;;;;;;;11.40;99.90;;;;;;5050072;28;19938;-46
2023/04/26 10:55:59;;;;;;;;;;;11.40;99.90;;;;;;5043445;28;19987;-43
2023/04/26 10:58:26;;;;;;;;;;;11.40;99.90;;;;;;5053254;28;19944;-49
2023/04/26 11:01:03;;;;;;;;;;;11.60;99.90;;;;;;5052224;28;19936;-46
2023/04/26 11:03:30;;;;;;;;;;;11.70;99.90;;;;;;5052074;28;20385;-45
2023/04/26 11:05:57;;;;;;;;;;;11.70;99.90;;;;;;5052596;28;19941;-44
2023/04/26 11:08:27;;;;;;;;;;;11.90;99.90;;;;;;5052756;28;19935;-45
2023/04/26 11:10:59;;;;;;;;;;;12.00;99.90;;;;;;5052648;28;19941;-45
2023/04/26 11:13:25;;;;;;;;;;;12.30;99.90;;;;;;5039261;28;19960;-42
2023/04/26 11:15:52;;;;;;;;;;;12.70;99.90;;;;;;5053070;28;20008;-44
2023/04/26 11:18:19;;;;;;;;;;;13.00;99.90;;;;;;5052810;28;19992;-45
2023/04/26 11:20:46;;;;;;;;;;;13.30;99.90;;;;;;5051364;28;20045;-42
2023/04/26 11:23:13;;;;;;;;;;;13.70;99.50;;;;;;5052906;28;19982;-46
2023/04/26 11:25:39;;;;;;;;;;;14.00;99.90;;;;;;5052757;28;20349;-45
2023/04/26 11:28:07;;;;;;;;;;;14.20;96.60;;;;;;5058606;28;19921;-46
2023/04/26 11:30:34;;;;;;;;;;;14.20;96.80;;;;;;5055436;28;19939;-44
2023/04/26 11:33:01;;;;;;;;;;;14.30;96.10;;;;;;5051117;28;19985;-48
2023/04/26 11:35:28;;;;;;;;;;;14.30;96.20;;;;;;5039042;28;20416;-44
2023/04/26 11:37:57;;;;;;;;;;;14.40;95.00;;;;;;5053196;28;19945;-48
2023/04/26 11:40:25;;;;;;;;;;;14.30;94.20;;;;;;5052355;28;20008;-49
2023/04/26 11:42:51;;;;;;;;;;;14.20;93.50;;;;;;5052709;28;19936;-45
2023/04/26 11:45:19;;;;;;;;;;;14.20;91.20;;;;;;5051297;28;20048;-47
2023/04/26 11:47:46;;;;;;;;;;;14.30;91.60;;;;;;5051160;28;19934;-41
2023/04/26 11:50:13;;;;;;;;;;;14.50;91.40;;;;;;5062966;28;19938;-44
2023/04/26 11:52:39;;;;;;;;;;;14.60;90.90;;;;;;5054887;28;19934;-43
2023/04/26 11:55:06;;;;;;;;;;;14.80;91.70;;;;;;5052084;28;20045;-45
2023/04/26 11:57:33;;;;;;;;;;;14.80;90.00;;;;;;5051953;28;19983;-43
2023/04/26 12:00:11;;;;;;;;;;;14.60;88.80;;;;;;5048089;28;20365;-43
2023/04/26 12:02:40;;;;;;;;;;;14.30;92.20;;;;;;5050566;28;19991;-44
2023/04/26 12:05:07;;;;;;;;;;;13.90;92.60;;;;;;5055650;28;19980;-44
2023/04/26 12:07:36;;;;;;;;;;;13.70;93.80;;;;;;5051290;28;19997;-44
2023/04/26 12:10:13;;;;;;;;;;;13.50;95.20;;;;;;5051981;28;19974;-44
2023/04/26 12:12:43;;;;;;;;;;;13.40;95.00;;;;;;5050096;28;19984;-44
2023/04/26 12:15:10;;;;;;;;;;;13.30;96.00;;;;;;5051853;28;20335;-44
2023/04/26 12:17:38;;;;;;;;;;;13.30;96.80;;;;;;5050566;28;19957;-43
2023/04/26 12:20:09;;;;;;;;;;;13.20;95.50;;;;;;5052175;28;20087;-44
2023/04/26 12:22:35;;;;;;;;;;;13.10;96.50;;;;;;5050935;28;19945;-43
2023/04/26 12:25:06;;;;;;;;;;;13.00;95.80;;;;;;5050954;28;19985;-46
2023/04/26 12:27:33;;;;;;;;;;;13.00;94.90;;;;;;5050965;28;20017;-49
2023/04/26 12:29:59;;;;;;;;;;;12.90;94.30;;;;;;5050282;28;19938;-48
2023/04/26 12:32:26;;;;;;;;;;;12.80;95.00;;;;;;5051609;28;19960;-44
2023/04/26 12:34:54;;;;;;;;;;;12.80;95.70;;;;;;5050758;28;20039;-48
2023/04/26 12:37:21;;;;;;;;;;;12.80;97.00;;;;;;5051672;28;20306;-45
2023/04/26 12:39:48;;;;;;;;;;;12.90;99.10;;;;;;5051069;28;19947;-48
2023/04/26 12:42:14;;;;;;;;;;;12.90;98.80;;;;;;5051066;28;19946;-46
2023/04/26 12:44:41;;;;;;;;;;;13.10;99.90;;;;;;5053865;28;19935;-45
2023/04/26 12:47:07;;;;;;;;;;;13.00;98.40;;;;;;5055792;28;19942;-46
2023/04/26 12:49:34;;;;;;;;;;;13.00;98.80;;;;;;5055836;28;20379;-44
2023/04/26 12:52:02;;;;;;;;;;;13.00;98.40;;;;;;5054868;28;19935;-43
2023/04/26 12:54:29;;;;;;;;;;;12.90;97.40;;;;;;5056166;28;20015;-44
2023/04/26 12:56:55;;;;;;;;;;;12.90;99.00;;;;;;5060267;28;20009;-44
2023/04/26 12:59:22;;;;;;;;;;;12.80;98.80;;;;;;5066514;28;19936;-41
2023/04/26 13:01:49;;;;;;;;;;;12.70;99.80;;;;;;5054885;28;20029;-43
2023/04/26 13:04:15;;;;;;;;;;;12.70;99.90;;;;;;5054010;28;19989;-43
2023/04/26 13:06:42;;;;;;;;;;;12.70;99.30;;;;;;5053722;28;20018;-44
2023/04/26 13:09:12;;;;;;;;;;;12.70;99.70;;;;;;5053705;28;20359;-42
2023/04/26 13:11:38;;;;;;;;;;;12.70;99.90;;;;;;5054571;28;19945;-43
2023/04/26 13:14:06;;;;;;;;;;;12.80;99.90;;;;;;5041514;28;19992;-44
2023/04/26 13:16:32;;;;;;;;;;;12.80;99.90;;;;;;5060624;28;19960;-43
2023/04/26 13:18:59;;;;;;;;;;;12.90;99.90;;;;;;5060072;28;19936;-45
2023/04/26 13:21:26;;;;;;;;;;;13.00;99.90;;;;;;5054759;28;19941;-42
2023/04/26 13:23:53;;;;;;;;;;;13.10;99.30;;;;;;5069269;28;20185;-42
2023/04/26 13:26:21;;;;;;;;;;;13.20;99.40;;;;;;5054772;28;20379;-43
2023/04/26 13:28:47;;;;;;;;;;;13.30;99.90;;;;;;5054645;28;20027;-44
2023/04/26 13:31:16;;;;;;;;;;;13.40;99.40;;;;;;5054622;28;20382;-45
2023/04/26 13:33:42;;;;;;;;;;;13.60;99.90;;;;;;5051396;28;19987;-45
2023/04/26 13:36:09;;;;;;;;;;;13.80;99.40;;;;;;5054246;28;19962;-41
2023/04/26 13:38:36;;;;;;;;;;;14.00;99.10;;;;;;5050976;28;19996;-43
2023/04/26 13:41:02;;;;;;;;;;;14.10;98.20;;;;;;5061442;28;19933;-43
2023/04/26 13:43:30;;;;;;;;;;;14.30;96.50;;;;;;5043899;28;20297;-44
2023/04/26 13:45:57;;;;;;;;;;;14.50;95.30;;;;;;5038731;28;19924;-44
2023/04/26 13:48:23;;;;;;;;;;;14.60;94.40;;;;;;5052145;28;19955;-42
2023/04/26 13:50:50;;;;;;;;;;;14.60;94.80;;;;;;5056921;28;19935;-44
2023/04/26 13:53:18;;;;;;;;;;;14.70;93.30;;;;;;5053643;28;19935;-44
2023/04/26 13:55:45;;;;;;;;;;;14.50;92.00;;;;;;5052474;28;20435;-45
2023/04/26 13:58:11;;;;;;;;;;;14.30;93.30;;;;;;5044781;28;19941;-41
2023/04/26 14:00:40;;;;;;;;;;;14.10;93.30;;;;;;5050119;28;19934;-42
2023/04/26 14:03:06;;;;;;;;;;;14.00;95.40;;;;;;5044540;28;20343;-43
2023/04/26 14:05:33;;;;;;;;;;;14.00;95.60;;;;;;5047591;28;20421;-42
2023/04/26 14:08:00;;;;;;;;;;;14.00;94.60;;;;;;5055470;28;19983;-46
2023/04/26 14:10:26;;;;;;;;;;;14.00;95.10;;;;;;5065537;28;19938;-44
2023/04/26 14:12:53;;;;;;;;;;;14.00;96.40;;;;;;5052872;28;19970;-42
2023/04/26 14:15:21;;;;;;;;;;;14.00;94.60;;;;;;5052597;28;19938;-48
2023/04/26 14:17:49;;;;;;;;;;;14.00;96.90;;;;;;5053822;28;19951;-44
2023/04/26 14:20:16;;;;;;;;;;;14.00;96.20;;;;;;5054369;28;19958;-47
2023/04/26 14:22:43;;;;;;;;;;;14.00;95.00;;;;;;5051016;28;19974;-45
2023/04/26 14:25:10;;;;;;;;;;;14.00;94.20;;;;;;5051421;28;20414;-47